sensor_id;sensor_type;location;lat;lon;timestamp;pressure;altitude;pressure_sealevel;temperature;humidity
55317;BME280;41178;48.956;8.130;2022-12-07T00:04:27;100048.94;;;4.29;56.81
55317;BME280;41178;48.956;8.130;2022-12-07T00:09:28;100075.06;;;5.31;55.13
55317;BME280;41178;48.956;8.130;2022-12-07T00:14:30;100067.50;;;5.36;55.00
55317;BME280;41178;48.956;8.130;2022-12-07T00:19:32;100052.94;;;4.93;55.49
55317;BME280;41178;48.956;8.130;2022-12-07T00:24:34;100060.56;;;5.06;54.84
55317;BME280;41178;48.956;8.130;2022-12-07T00:29:35;100080.09;;;5.14;55.34
55317;BME280;41178;48.956;8.130;2022-12-07T00:34:38;100090.56;;;5.36;54.70
55317;BME280;41178;48.956;8.130;2022-12-07T00:39:40;100070.78;;;4.81;55.85
55317;BME280;41178;48.956;8.130;2022-12-07T00:44:41;100064.97;;;4.17;57.14
55317;BME280;41178;48.956;8.130;2022-12-07T00:49:43;100063.16;;;4.28;56.41
55317;BME280;41178;48.956;8.130;2022-12-07T00:54:44;100067.47;;;4.29;56.99
55317;BME280;41178;48.956;8.130;2022-12-07T00:59:46;100087.03;;;5.35;55.02
55317;BME280;41178;48.956;8.130;2022-12-07T01:04:48;100065.44;;;4.42;57.15
55317;BME280;41178;48.956;8.130;2022-12-07T01:09:49;100056.53;;;4.43;57.26
55317;BME280;41178;48.956;8.130;2022-12-07T01:14:51;100045.38;;;2.74;60.73
55317;BME280;41178;48.956;8.130;2022-12-07T01:19:53;100092.88;;;2.97;61.80
55317;BME280;41178;48.956;8.130;2022-12-07T01:24:54;100038.25;;;4.69;57.07
55317;BME280;41178;48.956;8.130;2022-12-07T01:29:56;100080.09;;;3.44;59.29
55317;BME280;41178;48.956;8.130;2022-12-07T01:34:58;100064.75;;;3.99;58.46
55317;BME280;41178;48.956;8.130;2022-12-07T01:39:59;100046.03;;;4.32;57.50
55317;BME280;41178;48.956;8.130;2022-12-07T01:50:26;100072.41;;;5.21;54.89
55317;BME280;41178;48.956;8.130;2022-12-07T01:55:29;100079.53;;;4.52;56.50
55317;BME280;41178;48.956;8.130;2022-12-07T02:00:31;100091.06;;;3.91;57.44
55317;BME280;41178;48.956;8.130;2022-12-07T02:05:34;100090.75;;;4.15;56.88
55317;BME280;41178;48.956;8.130;2022-12-07T02:10:36;100076.69;;;3.84;57.56
55317;BME280;41178;48.956;8.130;2022-12-07T02:15:41;100103.03;;;3.86;58.07
55317;BME280;41178;48.956;8.130;2022-12-07T02:31:21;100051.44;;;3.49;58.04
55317;BME280;41178;48.956;8.130;2022-12-07T02:36:35;100040.50;;;4.45;56.11
55317;BME280;41178;48.956;8.130;2022-12-07T02:41:44;100048.09;;;3.78;57.39
55317;BME280;41178;48.956;8.130;2022-12-07T02:46:53;100055.06;;;2.85;59.08
55317;BME280;41178;48.956;8.130;2022-12-07T02:51:56;100057.47;;;3.09;58.14
55317;BME280;41178;48.956;8.130;2022-12-07T02:58:03;100056.91;;;3.26;58.48
55317;BME280;41178;48.956;8.130;2022-12-07T03:02:58;100045.97;;;2.78;59.04
55317;BME280;41178;48.956;8.130;2022-12-07T03:08:14;100032.34;;;4.27;56.89
55317;BME280;41178;48.956;8.130;2022-12-07T03:23:58;100025.69;;;3.51;58.55
55317;BME280;41178;48.956;8.130;2022-12-07T03:29:07;100021.28;;;4.02;57.33
55317;BME280;41178;48.956;8.130;2022-12-07T03:34:30;99996.31;;;3.85;56.89
55317;BME280;41178;48.956;8.130;2022-12-07T03:45:06;100047.03;;;3.28;58.85
55317;BME280;41178;48.956;8.130;2022-12-07T03:50:32;100045.56;;;2.50;60.30
55317;BME280;41178;48.956;8.130;2022-12-07T03:55:40;100012.13;;;2.60;60.43
55317;BME280;41178;48.956;8.130;2022-12-07T04:00:44;100050.38;;;2.45;61.04
55317;BME280;41178;48.956;8.130;2022-12-07T04:05:47;100021.06;;;1.25;63.34
55317;BME280;41178;48.956;8.130;2022-12-07T04:10:48;99982.38;;;0.56;64.81
55317;BME280;41178;48.956;8.130;2022-12-07T04:15:50;100000.38;;;1.88;61.92
55317;BME280;41178;48.956;8.130;2022-12-07T04:20:52;99978.00;;;2.47;60.72
55317;BME280;41178;48.956;8.130;2022-12-07T04:25:53;99958.53;;;2.90;59.11
55317;BME280;41178;48.956;8.130;2022-12-07T04:30:55;99947.31;;;3.50;57.85
55317;BME280;41178;48.956;8.130;2022-12-07T04:35:57;100004.13;;;1.63;61.46
55317;BME280;41178;48.956;8.130;2022-12-07T04:41:04;99997.78;;;2.21;61.25
55317;BME280;41178;48.956;8.130;2022-12-07T04:46:06;99968.31;;;2.79;59.36
55317;BME280;41178;48.956;8.130;2022-12-07T04:51:08;99986.50;;;1.41;62.16
55317;BME280;41178;48.956;8.130;2022-12-07T04:56:10;99974.16;;;2.08;60.57
55317;BME280;41178;48.956;8.130;2022-12-07T05:01:12;99979.81;;;2.03;59.58
55317;BME280;41178;48.956;8.130;2022-12-07T05:06:14;99967.47;;;2.36;59.17
55317;BME280;41178;48.956;8.130;2022-12-07T05:11:17;99949.63;;;3.94;56.05
55317;BME280;41178;48.956;8.130;2022-12-07T05:16:37;99982.81;;;2.42;58.31
55317;BME280;41178;48.956;8.130;2022-12-07T05:21:39;99990.75;;;1.87;59.93
55317;BME280;41178;48.956;8.130;2022-12-07T05:26:41;100008.44;;;1.53;61.54
55317;BME280;41178;48.956;8.130;2022-12-07T05:31:44;99956.13;;;3.30;57.30
55317;BME280;41178;48.956;8.130;2022-12-07T05:36:46;99956.09;;;2.99;57.47
55317;BME280;41178;48.956;8.130;2022-12-07T05:41:48;99985.88;;;2.80;58.09
55317;BME280;41178;48.956;8.130;2022-12-07T05:47:08;99980.41;;;2.18;58.87
55317;BME280;41178;48.956;8.130;2022-12-07T05:52:10;99971.28;;;2.85;58.18
55317;BME280;41178;48.956;8.130;2022-12-07T05:57:12;99996.94;;;2.52;58.92
55317;BME280;41178;48.956;8.130;2022-12-07T06:02:14;100008.25;;;2.43;58.66
55317;BME280;41178;48.956;8.130;2022-12-07T06:07:17;99969.09;;;2.90;57.75
55317;BME280;41178;48.956;8.130;2022-12-07T06:12:18;99984.41;;;0.04;63.78
55317;BME280;41178;48.956;8.130;2022-12-07T06:17:36;99998.88;;;0.10;64.80
55317;BME280;41178;48.956;8.130;2022-12-07T06:22:37;99998.22;;;0.43;64.51
55317;BME280;41178;48.956;8.130;2022-12-07T06:27:39;99967.56;;;1.36;62.89
55317;BME280;41178;48.956;8.130;2022-12-07T06:32:41;99985.06;;;0.19;64.17
55317;BME280;41178;48.956;8.130;2022-12-07T06:37:42;99962.38;;;1.57;61.02
55317;BME280;41178;48.956;8.130;2022-12-07T06:42:44;99957.72;;;1.49;61.83
55317;BME280;41178;48.956;8.130;2022-12-07T06:47:46;99988.94;;;0.97;62.58
55317;BME280;41178;48.956;8.130;2022-12-07T06:52:48;99981.66;;;1.12;62.55
55317;BME280;41178;48.956;8.130;2022-12-07T06:57:50;99975.41;;;1.13;62.34
55317;BME280;41178;48.956;8.130;2022-12-07T07:02:51;99991.69;;;0.01;63.89
55317;BME280;41178;48.956;8.130;2022-12-07T07:07:53;99971.78;;;-0.03;64.56
55317;BME280;41178;48.956;8.130;2022-12-07T07:13:15;99953.72;;;0.52;62.83
55317;BME280;41178;48.956;8.130;2022-12-07T07:18:16;99944.19;;;1.42;61.36
55317;BME280;41178;48.956;8.130;2022-12-07T07:23:19;99961.78;;;0.26;64.11
55317;BME280;41178;48.956;8.130;2022-12-07T07:28:21;99950.84;;;0.90;63.38
55317;BME280;41178;48.956;8.130;2022-12-07T07:33:22;99966.50;;;-0.40;65.69
55317;BME280;41178;48.956;8.130;2022-12-07T07:38:24;99971.66;;;0.22;64.12
55317;BME280;41178;48.956;8.130;2022-12-07T07:43:26;99947.84;;;0.83;62.70
55317;BME280;41178;48.956;8.130;2022-12-07T07:48:27;99919.44;;;1.66;60.06
55317;BME280;41178;48.956;8.130;2022-12-07T07:53:29;99925.59;;;1.99;60.27
55317;BME280;41178;48.956;8.130;2022-12-07T07:58:31;99957.44;;;1.07;62.40
55317;BME280;41178;48.956;8.130;2022-12-07T08:03:32;99965.56;;;0.93;61.89
55317;BME280;41178;48.956;8.130;2022-12-07T08:08:34;99944.13;;;1.88;59.74
55317;BME280;41178;48.956;8.130;2022-12-07T08:13:36;99940.22;;;1.48;60.62
55317;BME280;41178;48.956;8.130;2022-12-07T08:18:39;99943.69;;;1.60;61.82
55317;BME280;41178;48.956;8.130;2022-12-07T08:23:41;100003.94;;;0.13;62.96
55317;BME280;41178;48.956;8.130;2022-12-07T08:28:43;99944.13;;;2.20;59.37
55317;BME280;41178;48.956;8.130;2022-12-07T08:33:47;99966.22;;;1.53;60.81
55317;BME280;41178;48.956;8.130;2022-12-07T08:38:49;99995.00;;;1.33;61.17
55317;BME280;41178;48.956;8.130;2022-12-07T08:44:11;99958.88;;;2.23;58.61
55317;BME280;41178;48.956;8.130;2022-12-07T08:49:22;99985.53;;;1.65;59.36
55317;BME280;41178;48.956;8.130;2022-12-07T08:54:25;99987.63;;;2.05;59.43
55317;BME280;41178;48.956;8.130;2022-12-07T08:59:29;100040.66;;;0.87;60.88
55317;BME280;41178;48.956;8.130;2022-12-07T09:04:30;99978.00;;;2.47;58.26
55317;BME280;41178;48.956;8.130;2022-12-07T09:09:33;100032.28;;;1.51;59.95
55317;BME280;41178;48.956;8.130;2022-12-07T09:14:34;99987.41;;;2.40;57.94
55317;BME280;41178;48.956;8.130;2022-12-07T09:19:37;99999.75;;;1.96;58.17
55317;BME280;41178;48.956;8.130;2022-12-07T09:24:38;100021.13;;;1.93;58.38
55317;BME280;41178;48.956;8.130;2022-12-07T09:29:40;99990.50;;;2.66;57.54
55317;BME280;41178;48.956;8.130;2022-12-07T09:34:42;100061.03;;;1.32;60.12
55317;BME280;41178;48.956;8.130;2022-12-07T09:39:43;100010.81;;;2.33;57.57
55317;BME280;41178;48.956;8.130;2022-12-07T09:44:50;100006.50;;;2.86;56.74
55317;BME280;41178;48.956;8.130;2022-12-07T09:49:55;100011.88;;;1.98;57.67
55317;BME280;41178;48.956;8.130;2022-12-07T09:55:00;100012.03;;;2.29;58.29
55317;BME280;41178;48.956;8.130;2022-12-07T10:00:07;100011.19;;;2.29;57.79
55317;BME280;41178;48.956;8.130;2022-12-07T10:05:15;100018.09;;;1.97;57.98
55317;BME280;41178;48.956;8.130;2022-12-07T10:10:35;99995.16;;;2.74;56.67
55317;BME280;41178;48.956;8.130;2022-12-07T10:20:49;100007.81;;;2.70;57.24
55317;BME280;41178;48.956;8.130;2022-12-07T10:25:51;100003.38;;;2.92;56.40
55317;BME280;41178;48.956;8.130;2022-12-07T10:30:58;99998.75;;;2.73;57.05
55317;BME280;41178;48.956;8.130;2022-12-07T10:36:19;100003.31;;;2.50;56.76
55317;BME280;41178;48.956;8.130;2022-12-07T10:41:21;99990.41;;;3.31;56.14
55317;BME280;41178;48.956;8.130;2022-12-07T10:52:34;99997.53;;;3.40;56.12
55317;BME280;41178;48.956;8.130;2022-12-07T11:12:29;99974.59;;;2.24;60.01
55317;BME280;41178;48.956;8.130;2022-12-07T11:23:30;99930.94;;;2.83;58.64
55317;BME280;41178;48.956;8.130;2022-12-07T11:33:47;99951.69;;;1.70;60.98
55317;BME280;41178;48.956;8.130;2022-12-07T11:39:02;99940.66;;;1.76;60.93
55317;BME280;41178;48.956;8.130;2022-12-07T11:44:07;99916.38;;;2.26;59.96
55317;BME280;41178;48.956;8.130;2022-12-07T11:49:23;99909.75;;;2.73;59.38
55317;BME280;41178;48.956;8.130;2022-12-07T11:54:29;99925.22;;;1.60;61.22
55317;BME280;41178;48.956;8.130;2022-12-07T11:59:39;99920.19;;;2.01;61.24
55317;BME280;41178;48.956;8.130;2022-12-07T12:04:55;99891.53;;;2.28;60.26
55317;BME280;41178;48.956;8.130;2022-12-07T12:10:05;99898.41;;;1.87;60.72
55317;BME280;41178;48.956;8.130;2022-12-07T12:25:36;99876.25;;;2.74;59.78
55317;BME280;41178;48.956;8.130;2022-12-07T12:30:40;99859.19;;;2.88;60.03
55317;BME280;41178;48.956;8.130;2022-12-07T12:35:42;99857.84;;;3.24;58.95
55317;BME280;41178;48.956;8.130;2022-12-07T12:40:44;99865.25;;;3.40;59.06
55317;BME280;41178;48.956;8.130;2022-12-07T12:51:39;99870.97;;;2.53;60.35
55317;BME280;41178;48.956;8.130;2022-12-07T12:56:49;99888.16;;;2.26;61.22
55317;BME280;41178;48.956;8.130;2022-12-07T13:02:33;99859.66;;;2.72;60.42
55317;BME280;41178;48.956;8.130;2022-12-07T13:18:35;99826.59;;;2.78;59.34
55317;BME280;41178;48.956;8.130;2022-12-07T13:29:00;99822.31;;;3.07;59.05
55317;BME280;41178;48.956;8.130;2022-12-07T13:34:31;99822.78;;;3.42;58.01
55317;BME280;41178;48.956;8.130;2022-12-07T13:39:35;99852.75;;;3.81;56.92
55317;BME280;41178;48.956;8.130;2022-12-07T13:44:45;99837.28;;;3.57;57.40
55317;BME280;41178;48.956;8.130;2022-12-07T13:49:54;99848.13;;;3.54;58.19
55317;BME280;41178;48.956;8.130;2022-12-07T14:00:06;99829.41;;;2.86;58.93
55317;BME280;41178;48.956;8.130;2022-12-07T14:05:23;99845.69;;;3.82;56.77
55317;BME280;41178;48.956;8.130;2022-12-07T14:15:31;99857.06;;;3.63;57.87
55317;BME280;41178;48.956;8.130;2022-12-07T14:25:49;99849.84;;;4.04;56.35
55317;BME280;41178;48.956;8.130;2022-12-07T14:30:52;99872.84;;;4.23;56.03
55317;BME280;41178;48.956;8.130;2022-12-07T14:35:56;99860.00;;;3.60;57.20
55317;BME280;41178;48.956;8.130;2022-12-07T14:40:59;99847.75;;;3.69;56.56
55317;BME280;41178;48.956;8.130;2022-12-07T14:46:21;99864.34;;;4.10;56.31
55317;BME280;41178;48.956;8.130;2022-12-07T14:51:23;99859.16;;;3.59;56.81
55317;BME280;41178;48.956;8.130;2022-12-07T14:56:45;99885.38;;;3.82;57.66
55317;BME280;41178;48.956;8.130;2022-12-07T15:01:50;99866.38;;;3.47;57.97
55317;BME280;41178;48.956;8.130;2022-12-07T15:07:00;99896.09;;;3.20;59.41
55317;BME280;41178;48.956;8.130;2022-12-07T15:12:02;99868.69;;;3.21;58.70
55317;BME280;41178;48.956;8.130;2022-12-07T15:17:05;99887.31;;;2.89;60.29
55317;BME280;41178;48.956;8.130;2022-12-07T15:22:12;99882.69;;;3.12;59.60
55317;BME280;41178;48.956;8.130;2022-12-07T15:27:13;99878.50;;;2.15;60.08
55317;BME280;41178;48.956;8.130;2022-12-07T15:32:15;99882.41;;;2.21;60.43
55317;BME280;41178;48.956;8.130;2022-12-07T15:37:17;99881.09;;;1.94;62.01
55317;BME280;41178;48.956;8.130;2022-12-07T15:42:19;99864.66;;;1.91;61.38
55317;BME280;41178;48.956;8.130;2022-12-07T15:47:21;99836.66;;;3.15;58.76
55317;BME280;41178;48.956;8.130;2022-12-07T15:52:22;99840.69;;;2.36;59.84
55317;BME280;41178;48.956;8.130;2022-12-07T15:57:24;99836.75;;;4.12;56.87
55317;BME280;41178;48.956;8.130;2022-12-07T16:02:26;99857.63;;;2.54;59.71
55317;BME280;41178;48.956;8.130;2022-12-07T16:07:29;99837.47;;;2.84;59.53
55317;BME280;41178;48.956;8.130;2022-12-07T16:12:31;99845.53;;;2.10;60.20
55317;BME280;41178;48.956;8.130;2022-12-07T16:17:32;99825.22;;;1.89;60.50
55317;BME280;41178;48.956;8.130;2022-12-07T16:22:34;99840.25;;;2.31;60.58
55317;BME280;41178;48.956;8.130;2022-12-07T16:27:36;99793.69;;;2.61;59.56
55317;BME280;41178;48.956;8.130;2022-12-07T16:32:38;99843.47;;;2.34;61.04
55317;BME280;41178;48.956;8.130;2022-12-07T16:37:42;99795.97;;;2.75;59.19
55317;BME280;41178;48.956;8.130;2022-12-07T16:42:43;99793.84;;;2.38;59.88
55317;BME280;41178;48.956;8.130;2022-12-07T16:47:45;99784.78;;;2.52;59.10
55317;BME280;41178;48.956;8.130;2022-12-07T16:52:47;99786.41;;;3.15;58.75
55317;BME280;41178;48.956;8.130;2022-12-07T16:57:49;99779.84;;;2.78;59.03
55317;BME280;41178;48.956;8.130;2022-12-07T17:02:50;99780.97;;;3.16;58.42
55317;BME280;41178;48.956;8.130;2022-12-07T17:07:52;99780.22;;;2.95;59.21
55317;BME280;41178;48.956;8.130;2022-12-07T17:12:54;99795.03;;;2.45;60.42
55317;BME280;41178;48.956;8.130;2022-12-07T17:17:57;99776.03;;;2.30;60.23
55317;BME280;41178;48.956;8.130;2022-12-07T17:22:59;99784.03;;;2.19;60.44
55317;BME280;41178;48.956;8.130;2022-12-07T17:28:01;99783.53;;;1.51;61.38
55317;BME280;41178;48.956;8.130;2022-12-07T17:33:03;99777.84;;;1.55;61.81
55317;BME280;41178;48.956;8.130;2022-12-07T17:38:04;99730.44;;;3.29;58.40
55317;BME280;41178;48.956;8.130;2022-12-07T17:43:06;99733.03;;;2.49;58.84
55317;BME280;41178;48.956;8.130;2022-12-07T17:48:08;99759.19;;;2.22;60.04
55317;BME280;41178;48.956;8.130;2022-12-07T17:53:11;99750.44;;;2.31;60.39
55317;BME280;41178;48.956;8.130;2022-12-07T17:58:12;99731.63;;;2.45;59.70
55317;BME280;41178;48.956;8.130;2022-12-07T18:03:14;99754.41;;;1.94;60.91
55317;BME280;41178;48.956;8.130;2022-12-07T18:08:16;99766.59;;;2.07;60.93
55317;BME280;41178;48.956;8.130;2022-12-07T18:13:18;99732.53;;;2.65;58.71
55317;BME280;41178;48.956;8.130;2022-12-07T18:18:39;99755.19;;;1.20;62.12
55317;BME280;41178;48.956;8.130;2022-12-07T18:23:42;99745.91;;;2.12;60.71
55317;BME280;41178;48.956;8.130;2022-12-07T18:28:45;99702.47;;;3.46;56.97
55317;BME280;41178;48.956;8.130;2022-12-07T18:33:47;99718.81;;;2.10;59.01
55317;BME280;41178;48.956;8.130;2022-12-07T18:38:50;99714.44;;;3.11;57.78
55317;BME280;41178;48.956;8.130;2022-12-07T18:43:52;99718.47;;;3.64;56.35
55317;BME280;41178;48.956;8.130;2022-12-07T18:48:54;99720.44;;;3.23;56.88
55317;BME280;41178;48.956;8.130;2022-12-07T18:53:57;99740.03;;;2.29;58.64
55317;BME280;41178;48.956;8.130;2022-12-07T18:59:02;99755.97;;;2.18;59.04
55317;BME280;41178;48.956;8.130;2022-12-07T19:04:23;99758.44;;;2.41;58.41
55317;BME280;41178;48.956;8.130;2022-12-07T19:09:25;99740.44;;;2.04;58.17
55317;BME280;41178;48.956;8.130;2022-12-07T19:14:32;99725.88;;;3.51;55.33
55317;BME280;41178;48.956;8.130;2022-12-07T19:19:45;99737.59;;;3.48;55.58
55317;BME280;41178;48.956;8.130;2022-12-07T19:24:48;99743.16;;;3.45;55.60
55317;BME280;41178;48.956;8.130;2022-12-07T19:29:50;99746.06;;;3.61;54.90
55317;BME280;41178;48.956;8.130;2022-12-07T19:34:53;99719.59;;;3.03;56.25
55317;BME280;41178;48.956;8.130;2022-12-07T19:39:57;99796.56;;;0.97;61.65
55317;BME280;41178;48.956;8.130;2022-12-07T19:44:59;99783.69;;;1.70;60.07
55317;BME280;41178;48.956;8.130;2022-12-07T19:50:02;99733.66;;;2.32;57.80
55317;BME280;41178;48.956;8.130;2022-12-07T19:55:04;99782.84;;;1.26;59.94
55317;BME280;41178;48.956;8.130;2022-12-07T20:00:07;99773.72;;;1.41;60.46
55317;BME280;41178;48.956;8.130;2022-12-07T20:05:09;99744.91;;;2.34;58.62
55317;BME280;41178;48.956;8.130;2022-12-07T20:10:11;99711.38;;;2.56;57.69
55317;BME280;41178;48.956;8.130;2022-12-07T20:15:13;99723.38;;;2.08;57.95
55317;BME280;41178;48.956;8.130;2022-12-07T20:20:15;99708.19;;;2.71;56.69
55317;BME280;41178;48.956;8.130;2022-12-07T20:25:16;99716.44;;;2.78;56.62
55317;BME280;41178;48.956;8.130;2022-12-07T20:30:20;99738.63;;;1.62;58.84
55317;BME280;41178;48.956;8.130;2022-12-07T20:35:22;99743.16;;;0.95;59.89
55317;BME280;41178;48.956;8.130;2022-12-07T20:40:24;99750.28;;;1.04;60.06
55317;BME280;41178;48.956;8.130;2022-12-07T20:45:26;99748.19;;;1.42;59.41
55317;BME280;41178;48.956;8.130;2022-12-07T20:50:30;99715.25;;;2.21;57.93
55317;BME280;41178;48.956;8.130;2022-12-07T20:55:33;99717.69;;;2.33;57.13
55317;BME280;41178;48.956;8.130;2022-12-07T21:00:35;99728.88;;;1.41;59.19
55317;BME280;41178;48.956;8.130;2022-12-07T21:05:37;99736.97;;;1.61;58.72
55317;BME280;41178;48.956;8.130;2022-12-07T21:10:39;99724.19;;;1.01;59.60
55317;BME280;41178;48.956;8.130;2022-12-07T21:15:41;99716.25;;;1.98;58.40
55317;BME280;41178;48.956;8.130;2022-12-07T21:20:42;99715.16;;;1.80;58.25
55317;BME280;41178;48.956;8.130;2022-12-07T21:25:44;99714.06;;;2.34;57.37
55317;BME280;41178;48.956;8.130;2022-12-07T21:30:46;99714.91;;;1.83;57.98
55317;BME280;41178;48.956;8.130;2022-12-07T21:36:10;99705.06;;;1.64;58.08
55317;BME280;41178;48.956;8.130;2022-12-07T21:41:24;99724.59;;;0.85;59.08
55317;BME280;41178;48.956;8.130;2022-12-07T21:46:27;99722.78;;;0.86;60.58
55317;BME280;41178;48.956;8.130;2022-12-07T21:51:35;99734.38;;;0.95;60.20
55317;BME280;41178;48.956;8.130;2022-12-07T21:56:39;99727.81;;;1.00;60.05
55317;BME280;41178;48.956;8.130;2022-12-07T22:01:43;99707.31;;;1.90;58.16
55317;BME280;41178;48.956;8.130;2022-12-07T22:06:48;99696.16;;;1.44;57.92
55317;BME280;41178;48.956;8.130;2022-12-07T22:11:50;99690.88;;;1.65;57.32
55317;BME280;41178;48.956;8.130;2022-12-07T22:16:52;99681.25;;;2.06;55.85
55317;BME280;41178;48.956;8.130;2022-12-07T22:21:53;99712.44;;;1.05;59.35
55317;BME280;41178;48.956;8.130;2022-12-07T22:26:55;99681.38;;;1.53;57.76
55317;BME280;41178;48.956;8.130;2022-12-07T22:31:57;99708.47;;;0.56;60.09
55317;BME280;41178;48.956;8.130;2022-12-07T22:36:59;99699.53;;;1.02;59.57
55317;BME280;41178;48.956;8.130;2022-12-07T22:42:00;99703.53;;;0.74;60.50
55317;BME280;41178;48.956;8.130;2022-12-07T22:47:02;99685.88;;;0.31;61.28
55317;BME280;41178;48.956;8.130;2022-12-07T22:52:06;99676.66;;;0.37;61.16
55317;BME280;41178;48.956;8.130;2022-12-07T22:57:08;99657.78;;;1.19;59.16
55317;BME280;41178;48.956;8.130;2022-12-07T23:02:10;99668.56;;;0.83;59.06
55317;BME280;41178;48.956;8.130;2022-12-07T23:07:13;99673.00;;;-0.66;62.22
55317;BME280;41178;48.956;8.130;2022-12-07T23:12:15;99675.31;;;-0.85;63.50
55317;BME280;41178;48.956;8.130;2022-12-07T23:17:35;99646.09;;;-0.45;63.30
55317;BME280;41178;48.956;8.130;2022-12-07T23:22:37;99646.03;;;-0.10;62.14
55317;BME280;41178;48.956;8.130;2022-12-07T23:27:39;99630.88;;;-1.37;65.59
55317;BME280;41178;48.956;8.130;2022-12-07T23:32:41;99631.59;;;-1.59;66.59
55317;BME280;41178;48.956;8.130;2022-12-07T23:37:43;99610.53;;;-0.98;66.15
55317;BME280;41178;48.956;8.130;2022-12-07T23:42:44;99619.25;;;-1.45;66.86
55317;BME280;41178;48.956;8.130;2022-12-07T23:47:46;99585.88;;;-0.26;65.13
55317;BME280;41178;48.956;8.130;2022-12-07T23:52:48;99599.16;;;-1.09;65.68
55317;BME280;41178;48.956;8.130;2022-12-07T23:57:49;99592.78;;;-0.94;65.30
